createdAt,value
2019-01-28T00:00:03.652Z,13.60
2019-01-28T00:00:52.193Z,15.18
2019-01-28T00:01:29.657Z,13.53
2019-01-28T00:02:08.093Z,15.28
2019-01-28T00:02:45.977Z,12.40
2019-01-28T00:03:25.152Z,16.02
2019-01-28T00:04:03.181Z,15.80
2019-01-28T00:04:40.291Z,14.60
2019-01-28T00:05:18.471Z,13.72
2019-01-28T00:05:56.563Z,16.15
2019-01-28T00:06:35.580Z,12.78
2019-01-28T00:07:13.839Z,11.80
2019-01-28T00:07:51.516Z,13.62
2019-01-28T00:08:29.746Z,14.47
2019-01-28T00:09:08.625Z,13.30
2019-01-28T00:09:46.454Z,13.32
2019-01-28T00:10:27.875Z,15.03
2019-01-28T00:11:05.361Z,14.75
2019-01-28T00:11:44.831Z,19.45
2019-01-28T00:12:22.289Z,14.28
2019-01-28T00:13:00.122Z,12.33
2019-01-28T00:13:38.139Z,11.65
2019-01-28T00:14:16.335Z,13.40
2019-01-28T00:14:54.421Z,15.40
2019-01-28T00:15:32.212Z,13.22
2019-01-28T00:16:09.971Z,12.65
2019-01-28T00:16:47.696Z,13.48
2019-01-28T00:17:25.412Z,12.98
2019-01-28T00:18:06.128Z,13.53
2019-01-28T00:18:43.751Z,13.48
2019-01-28T00:19:21.383Z,12.95
2019-01-28T00:19:59.288Z,13.55
2019-01-28T00:20:37.267Z,14.63
2019-01-28T00:21:14.844Z,14.25
2019-01-28T00:21:52.225Z,13.75
2019-01-28T00:22:29.706Z,14.10
2019-01-28T00:23:07.379Z,13.48
2019-01-28T00:23:45.349Z,14.00
2019-01-28T00:24:22.971Z,16.07
2019-01-28T00:25:00.240Z,14.23
2019-01-28T00:25:38.028Z,14.03
2019-01-28T00:26:15.491Z,14.35
2019-01-28T00:26:52.968Z,13.08
2019-01-28T00:27:30.921Z,12.40
2019-01-28T00:28:08.341Z,11.53
2019-01-28T00:28:46.124Z,12.93
2019-01-28T00:29:24.031Z,13.40
2019-01-28T00:30:01.714Z,14.05
2019-01-28T00:30:39.484Z,12.40
2019-01-28T00:31:17.272Z,12.18
2019-01-28T00:31:54.863Z,11.22
2019-01-28T00:32:32.974Z,12.40
2019-01-28T00:33:09.960Z,13.43
2019-01-28T00:33:47.896Z,12.03
2019-01-28T00:34:24.919Z,12.50
2019-01-28T00:35:02.349Z,14.05
2019-01-28T00:35:40.244Z,13.68
2019-01-28T00:36:17.520Z,13.03
2019-01-28T00:36:55.518Z,13.80
2019-01-28T00:37:33.316Z,14.07
2019-01-28T00:38:10.748Z,13.48
2019-01-28T00:38:48.658Z,11.25
2019-01-28T00:39:26.348Z,11.88
2019-01-28T00:40:04.152Z,15.08
2019-01-28T00:40:41.676Z,12.95
2019-01-28T00:41:19.422Z,13.43
2019-01-28T00:41:57.386Z,12.93
2019-01-28T00:42:34.857Z,13.75
2019-01-28T00:43:11.983Z,13.15
2019-01-28T00:43:50.028Z,14.38
2019-01-28T00:44:27.391Z,11.83
2019-01-28T00:45:05.913Z,12.93
2019-01-28T00:45:43.787Z,11.90
2019-01-28T00:46:21.356Z,13.65
2019-01-28T00:46:59.153Z,12.93
2019-01-28T00:47:36.948Z,13.20
2019-01-28T00:48:14.411Z,12.88
2019-01-28T00:48:52.143Z,13.32
2019-01-28T00:49:29.582Z,13.98
2019-01-28T00:50:08.075Z,13.45
2019-01-28T00:50:45.728Z,13.85
2019-01-28T00:51:23.532Z,15.70
2019-01-28T00:52:01.000Z,16.07
2019-01-28T00:52:39.767Z,13.45
2019-01-28T00:53:17.264Z,13.80
2019-01-28T00:53:54.687Z,12.10
2019-01-28T00:54:31.882Z,14.55
2019-01-28T00:55:10.885Z,12.80
2019-01-28T00:55:48.455Z,12.20
2019-01-28T00:56:26.151Z,13.75
2019-01-28T00:57:03.899Z,15.50
2019-01-28T00:57:41.462Z,12.98
2019-01-28T00:58:19.718Z,11.70
2019-01-28T00:58:57.143Z,14.05
2019-01-28T00:59:35.306Z,13.48
2019-01-28T01:00:16.137Z,14.30
2019-01-28T01:00:54.382Z,12.50
2019-01-28T01:01:31.636Z,14.18
2019-01-28T01:02:09.572Z,13.93
2019-01-28T01:02:47.724Z,13.85
2019-01-28T01:03:25.502Z,14.78
2019-01-28T01:04:03.474Z,13.55
2019-01-28T01:04:41.634Z,14.68
2019-01-28T01:05:19.187Z,14.78
2019-01-28T01:05:56.671Z,12.23
2019-01-28T01:06:34.416Z,17.12
2019-01-28T01:07:12.836Z,12.78
2019-01-28T01:07:50.070Z,12.55
2019-01-28T01:08:27.502Z,12.82
2019-01-28T01:09:08.559Z,13.18
2019-01-28T01:09:45.634Z,12.80
2019-01-28T01:10:24.091Z,13.15
2019-01-28T01:11:02.084Z,13.70
2019-01-28T01:11:39.322Z,13.62
2019-01-28T01:12:17.102Z,17.30
2019-01-28T01:12:54.570Z,13.25
2019-01-28T01:13:32.738Z,12.10
2019-01-28T01:14:10.648Z,14.43
2019-01-28T01:14:48.667Z,12.18
2019-01-28T01:15:26.020Z,12.60
2019-01-28T01:16:03.396Z,11.15
2019-01-28T01:16:41.670Z,17.12
2019-01-28T01:17:19.496Z,10.68
2019-01-28T01:17:59.988Z,13.83
2019-01-28T01:18:37.451Z,13.20
2019-01-28T01:19:15.356Z,12.58
2019-01-28T01:19:52.719Z,12.47
2019-01-28T01:20:30.232Z,15.95
2019-01-28T01:21:07.980Z,14.35
2019-01-28T01:21:45.764Z,12.95
2019-01-28T01:22:23.140Z,11.78
2019-01-28T01:23:00.524Z,14.33
2019-01-28T01:23:38.106Z,11.30
2019-01-28T01:24:15.482Z,11.45
2019-01-28T01:24:53.216Z,13.95
2019-01-28T01:25:30.777Z,14.55
2019-01-28T01:26:08.300Z,13.55
2019-01-28T01:26:46.316Z,12.60
2019-01-28T01:27:24.098Z,12.45
2019-01-28T01:28:01.520Z,14.40
2019-01-28T01:28:39.185Z,12.60
2019-01-28T01:29:16.944Z,13.10
2019-01-28T01:29:54.968Z,11.80
2019-01-28T01:30:32.920Z,12.70
2019-01-28T01:31:10.637Z,12.70
2019-01-28T01:31:48.193Z,11.22
2019-01-28T01:32:25.676Z,12.37
2019-01-28T01:33:03.044Z,13.95
2019-01-28T01:33:40.516Z,11.10
2019-01-28T01:34:20.159Z,12.70
2019-01-28T01:34:57.869Z,12.60
2019-01-28T01:35:35.628Z,12.60
2019-01-28T01:36:12.361Z,10.90
2019-01-28T01:36:50.170Z,11.80
2019-01-28T01:37:27.930Z,13.75
2019-01-28T01:38:06.112Z,12.55
2019-01-28T01:38:43.529Z,12.05
2019-01-28T01:39:21.100Z,11.75
2019-01-28T01:39:59.003Z,11.80
2019-01-28T01:40:36.474Z,13.68
2019-01-28T01:41:14.392Z,12.23
2019-01-28T01:41:52.844Z,13.85
2019-01-28T01:42:29.932Z,14.45
2019-01-28T01:43:07.616Z,13.30
2019-01-28T01:43:45.398Z,13.35
2019-01-28T01:44:23.344Z,13.75
2019-01-28T01:45:01.004Z,12.05
2019-01-28T01:45:38.632Z,12.37
2019-01-28T01:46:16.336Z,13.55
2019-01-28T01:46:53.826Z,11.93
2019-01-28T01:47:31.500Z,13.75
2019-01-28T01:48:09.406Z,13.45
2019-01-28T01:48:47.175Z,11.70
2019-01-28T01:49:25.322Z,13.60
2019-01-28T01:50:03.045Z,11.97
2019-01-28T01:50:40.889Z,13.80
2019-01-28T01:51:18.764Z,13.90
2019-01-28T01:51:56.116Z,13.72
2019-01-28T01:52:52.110Z,11.40
2019-01-28T01:53:30.188Z,14.13
2019-01-28T01:54:07.391Z,13.90
2019-01-28T01:54:45.603Z,14.93
2019-01-28T01:55:23.711Z,15.38
2019-01-28T01:56:01.455Z,13.78
2019-01-28T01:56:39.156Z,15.80
2019-01-28T01:57:16.832Z,15.43
2019-01-28T01:57:55.155Z,14.47
2019-01-28T01:58:32.860Z,13.45
2019-01-28T01:59:10.214Z,15.05
2019-01-28T01:59:47.660Z,14.85
2019-01-28T02:00:25.971Z,16.82
2019-01-28T02:01:03.060Z,13.93
2019-01-28T02:01:40.927Z,15.35
2019-01-28T02:02:18.488Z,13.68
2019-01-28T02:02:56.254Z,14.90
2019-01-28T02:03:33.388Z,13.00
2019-01-28T02:04:11.044Z,14.23
2019-01-28T02:04:49.174Z,13.13
2019-01-28T02:05:27.256Z,16.00
2019-01-28T02:06:04.654Z,13.32
2019-01-28T02:06:42.497Z,13.55
2019-01-28T02:07:20.492Z,15.55
2019-01-28T02:07:58.212Z,16.12
2019-01-28T02:08:35.286Z,13.25
2019-01-28T02:09:13.020Z,14.75
2019-01-28T02:09:50.733Z,14.38
2019-01-28T02:10:28.190Z,15.88
2019-01-28T02:11:05.716Z,19.98
2019-01-28T02:11:43.245Z,17.23
2019-01-28T02:12:21.162Z,15.90
2019-01-28T02:12:58.848Z,18.02
2019-01-28T02:13:36.378Z,14.23
2019-01-28T02:14:14.111Z,16.55
2019-01-28T02:14:51.800Z,14.50
2019-01-28T02:15:29.548Z,15.35
2019-01-28T02:16:07.148Z,14.65
2019-01-28T02:16:44.615Z,16.60
2019-01-28T02:17:22.413Z,15.20
2019-01-28T02:18:00.220Z,15.00
2019-01-28T02:18:37.282Z,16.25
2019-01-28T02:19:14.836Z,14.85
2019-01-28T02:19:52.625Z,15.10
2019-01-28T02:20:30.311Z,16.23
2019-01-28T02:21:08.094Z,13.83
2019-01-28T02:21:45.258Z,16.00
2019-01-28T02:22:22.431Z,14.35
2019-01-28T02:22:59.858Z,18.27
2019-01-28T02:23:37.284Z,15.28
2019-01-28T02:24:14.660Z,17.17
2019-01-28T02:24:52.137Z,19.82
2019-01-28T02:25:30.094Z,18.27
2019-01-28T02:26:07.513Z,15.30
2019-01-28T02:26:44.984Z,18.37
2019-01-28T02:27:21.985Z,15.58
2019-01-28T02:27:59.968Z,19.27
2019-01-28T02:28:37.772Z,14.65
2019-01-28T02:29:15.531Z,16.57
2019-01-28T02:29:53.102Z,17.00
2019-01-28T02:30:30.878Z,18.95
2019-01-28T02:31:08.249Z,16.52
2019-01-28T02:31:46.377Z,19.17
2019-01-28T02:32:24.605Z,18.48
2019-01-28T02:33:02.376Z,17.45
2019-01-28T02:33:40.312Z,17.05
2019-01-28T02:34:18.348Z,17.62
2019-01-28T02:34:56.540Z,20.00
2019-01-28T02:35:33.986Z,19.12
2019-01-28T02:36:11.672Z,20.82
2019-01-28T02:36:49.374Z,17.85
2019-01-28T02:37:27.570Z,18.35
2019-01-28T02:38:05.447Z,19.73
2019-01-28T02:38:43.600Z,19.32
2019-01-28T02:39:21.252Z,18.77
2019-01-28T02:39:59.196Z,18.15
2019-01-28T02:40:37.028Z,21.90
2019-01-28T02:41:14.681Z,18.65
2019-01-28T02:41:52.804Z,20.02
2019-01-28T02:42:29.874Z,17.35
2019-01-28T02:43:07.312Z,17.23
2019-01-28T02:43:44.987Z,18.50
2019-01-28T02:44:22.477Z,18.10
2019-01-28T02:44:59.851Z,19.37
2019-01-28T02:45:37.763Z,20.82
2019-01-28T02:46:15.564Z,18.30
2019-01-28T02:46:53.008Z,18.45
2019-01-28T02:47:30.812Z,21.23
2019-01-28T02:48:08.277Z,20.32
2019-01-28T02:48:46.060Z,20.32
2019-01-28T02:49:24.012Z,19.25
2019-01-28T02:50:01.690Z,17.05
2019-01-28T02:50:38.840Z,18.35
2019-01-28T02:51:16.650Z,19.15
2019-01-28T02:51:54.717Z,19.55
2019-01-28T02:52:32.346Z,20.05
2019-01-28T02:53:10.482Z,17.45
2019-01-28T02:53:48.586Z,18.23
2019-01-28T02:54:25.583Z,22.60
2019-01-28T02:55:03.674Z,20.15
2019-01-28T02:55:41.416Z,23.45
2019-01-28T02:56:19.515Z,19.77
2019-01-28T02:56:57.166Z,17.87
2019-01-28T02:57:35.082Z,22.00
2019-01-28T02:58:12.776Z,21.65
2019-01-28T02:58:50.571Z,19.90
2019-01-28T02:59:28.106Z,21.40
2019-01-28T03:00:10.349Z,22.75
2019-01-28T03:00:48.165Z,21.20
2019-01-28T03:01:26.310Z,19.62
2019-01-28T03:02:05.798Z,18.87
2019-01-28T03:02:43.076Z,22.48
2019-01-28T03:03:20.495Z,22.87
2019-01-28T03:03:58.168Z,21.33
2019-01-28T03:04:35.720Z,20.60
2019-01-28T03:05:14.061Z,20.32
2019-01-28T03:05:51.512Z,23.60
2019-01-28T03:06:28.596Z,26.57
2019-01-28T03:07:06.510Z,23.75
2019-01-28T03:07:44.993Z,21.00
2019-01-28T03:08:22.534Z,21.85
2019-01-28T03:09:00.220Z,24.85
2019-01-28T03:09:37.920Z,21.77
2019-01-28T03:10:20.745Z,21.68
2019-01-28T03:10:58.496Z,21.05
2019-01-28T03:11:35.668Z,23.00
2019-01-28T03:12:13.789Z,24.05
2019-01-28T03:12:51.080Z,22.13
2019-01-28T03:13:28.854Z,23.95
2019-01-28T03:14:06.521Z,21.20
2019-01-28T03:14:44.065Z,24.52
2019-01-28T03:15:21.695Z,22.55
2019-01-28T03:15:59.052Z,23.30
2019-01-28T03:16:36.931Z,23.45
2019-01-28T03:17:14.780Z,27.52
2019-01-28T03:17:52.090Z,29.57
2019-01-28T03:18:35.050Z,24.95
2019-01-28T03:19:12.795Z,23.15
2019-01-28T03:19:50.879Z,23.92
2019-01-28T03:20:27.566Z,20.10
2019-01-28T03:21:05.045Z,22.32
2019-01-28T03:21:42.801Z,25.52
2019-01-28T03:22:20.803Z,22.52
2019-01-28T03:22:58.368Z,25.08
2019-01-28T03:23:36.046Z,27.90
2019-01-28T03:24:13.851Z,24.35
2019-01-28T03:24:51.913Z,22.40
2019-01-28T03:25:29.165Z,20.05
2019-01-28T03:26:06.623Z,22.02
2019-01-28T03:26:44.368Z,24.40
2019-01-28T03:27:22.086Z,27.02
2019-01-28T03:27:59.445Z,24.35
2019-01-28T03:28:36.840Z,21.40
2019-01-28T03:29:33.128Z,23.30
2019-01-28T03:30:13.368Z,26.23
2019-01-28T03:30:51.313Z,27.85
2019-01-28T03:31:28.749Z,27.15
2019-01-28T03:32:05.976Z,21.33
2019-01-28T03:32:43.810Z,25.75
2019-01-28T03:33:21.222Z,26.30
2019-01-28T03:33:59.063Z,24.52
2019-01-28T03:34:36.767Z,20.68
2019-01-28T03:35:14.943Z,24.52
2019-01-28T03:35:52.531Z,29.07
2019-01-28T03:36:29.927Z,28.42
2019-01-28T03:37:07.631Z,34.65
2019-01-28T03:37:45.740Z,24.15
2019-01-28T03:38:23.685Z,25.37
2019-01-28T03:39:01.449Z,23.38
2019-01-28T03:39:39.173Z,29.85
2019-01-28T03:40:18.449Z,26.35
2019-01-28T03:40:56.356Z,22.37
2019-01-28T03:41:33.767Z,28.12
2019-01-28T03:42:11.642Z,23.62
2019-01-28T03:42:49.169Z,21.10
2019-01-28T03:43:26.829Z,23.38
2019-01-28T03:44:03.791Z,24.57
2019-01-28T03:44:41.058Z,24.85
2019-01-28T03:45:19.919Z,26.42
2019-01-28T03:45:57.452Z,27.02
2019-01-28T03:46:35.537Z,28.20
2019-01-28T03:47:13.068Z,23.60
2019-01-28T03:47:50.937Z,25.30
2019-01-28T03:48:28.689Z,27.30
2019-01-28T03:49:06.466Z,27.27
2019-01-28T03:49:44.254Z,26.68
2019-01-28T03:50:21.752Z,29.67
2019-01-28T03:50:59.954Z,26.17
2019-01-28T03:51:37.098Z,27.00
2019-01-28T03:52:16.631Z,26.40
2019-01-28T03:52:54.495Z,28.07
2019-01-28T03:53:32.291Z,26.23
2019-01-28T03:54:10.060Z,25.30
2019-01-28T03:54:47.979Z,22.62
2019-01-28T03:55:25.430Z,26.40
2019-01-28T03:56:03.145Z,24.35
2019-01-28T03:56:40.983Z,24.18
2019-01-28T03:57:18.890Z,27.32
2019-01-28T03:57:56.174Z,25.55
2019-01-28T03:58:34.017Z,26.75
2019-01-28T03:59:12.145Z,26.25
2019-01-28T03:59:49.972Z,26.45
2019-01-28T04:00:28.353Z,29.40
2019-01-28T04:01:06.118Z,25.10
2019-01-28T04:01:52.297Z,26.35
2019-01-28T04:02:30.050Z,24.18
2019-01-28T04:03:07.937Z,33.65
2019-01-28T04:03:45.288Z,24.70
2019-01-28T04:04:22.722Z,27.50
2019-01-28T04:05:00.740Z,26.07
2019-01-28T04:05:38.519Z,26.87
2019-01-28T04:06:35.084Z,23.02
2019-01-28T04:07:12.845Z,25.08
2019-01-28T04:07:50.690Z,26.30
2019-01-28T04:08:28.482Z,24.63
2019-01-28T04:09:09.260Z,24.12
2019-01-28T04:09:47.005Z,25.00
2019-01-28T04:10:24.802Z,26.70
2019-01-28T04:11:01.923Z,24.55
2019-01-28T04:11:38.850Z,26.65
2019-01-28T04:12:15.942Z,26.52
2019-01-28T04:12:54.240Z,23.90
2019-01-28T04:13:32.150Z,25.48
2019-01-28T04:14:09.682Z,28.32
2019-01-28T04:14:47.009Z,27.48
2019-01-28T04:15:26.473Z,28.50
2019-01-28T04:16:03.672Z,25.27
2019-01-28T04:16:41.389Z,28.20
2019-01-28T04:17:18.759Z,22.80
2019-01-28T04:17:56.417Z,22.15
2019-01-28T04:18:34.029Z,26.02
2019-01-28T04:19:11.459Z,23.90
2019-01-28T04:19:49.044Z,29.92
2019-01-28T04:20:27.515Z,23.75
2019-01-28T04:21:05.250Z,22.40
2019-01-28T04:21:43.224Z,24.18
2019-01-28T04:22:21.049Z,26.70
2019-01-28T04:22:58.164Z,26.52
2019-01-28T04:23:35.960Z,21.37
2019-01-28T04:24:13.540Z,23.38
2019-01-28T04:24:51.126Z,27.20
2019-01-28T04:25:28.914Z,27.25
2019-01-28T04:26:07.058Z,21.48
2019-01-28T04:26:45.042Z,27.82
2019-01-28T04:27:22.573Z,29.32
2019-01-28T04:28:00.357Z,25.70
2019-01-28T04:28:38.066Z,26.27
2019-01-28T04:29:15.517Z,23.75
2019-01-28T04:29:53.307Z,22.40
2019-01-28T04:30:31.332Z,27.67
2019-01-28T04:31:09.340Z,22.80
2019-01-28T04:31:47.379Z,21.62
2019-01-28T04:32:25.399Z,21.40
2019-01-28T04:33:04.065Z,27.85
2019-01-28T04:33:41.785Z,25.15
2019-01-28T04:34:19.650Z,24.18
2019-01-28T04:34:57.128Z,21.87
2019-01-28T04:35:34.968Z,25.48
2019-01-28T04:36:12.798Z,25.85
2019-01-28T04:36:50.658Z,23.80
2019-01-28T04:37:28.342Z,25.60
2019-01-28T04:38:05.872Z,23.73
2019-01-28T04:38:43.571Z,24.98
2019-01-28T04:39:21.580Z,21.80
2019-01-28T04:39:58.967Z,22.35
2019-01-28T04:40:37.025Z,30.32
2019-01-28T04:41:14.937Z,24.63
2019-01-28T04:41:52.631Z,29.30
2019-01-28T04:42:30.284Z,26.68
2019-01-28T04:43:08.145Z,29.48
2019-01-28T04:43:46.045Z,23.30
2019-01-28T04:44:23.628Z,23.67
2019-01-28T04:45:01.638Z,25.65
2019-01-28T04:45:39.280Z,23.62
2019-01-28T04:46:17.148Z,29.12
2019-01-28T04:46:55.170Z,27.45
2019-01-28T04:47:32.945Z,25.72
2019-01-28T04:48:10.739Z,26.95
2019-01-28T04:48:47.682Z,21.70
2019-01-28T04:49:25.416Z,23.52
2019-01-28T04:50:03.381Z,29.75
2019-01-28T04:50:41.381Z,21.75
2019-01-28T04:51:18.748Z,25.57
2019-01-28T04:51:56.135Z,22.58
2019-01-28T04:52:34.048Z,20.40
2019-01-28T04:53:11.515Z,23.70
2019-01-28T04:53:49.539Z,24.95
2019-01-28T04:54:27.187Z,19.90
2019-01-28T04:55:05.272Z,19.67
2019-01-28T04:55:43.286Z,25.00
2019-01-28T04:56:20.735Z,22.10
2019-01-28T04:56:58.458Z,20.55
2019-01-28T04:57:36.187Z,24.10
2019-01-28T04:58:13.904Z,26.52
2019-01-28T04:58:51.577Z,20.37
2019-01-28T04:59:29.351Z,23.67
2019-01-28T05:00:10.461Z,30.23
2019-01-28T05:00:48.295Z,21.93
2019-01-28T05:01:26.413Z,23.57
2019-01-28T05:02:03.633Z,22.42
2019-01-28T05:02:40.865Z,24.87
2019-01-28T05:03:18.377Z,24.00
2019-01-28T05:03:56.102Z,23.10
2019-01-28T05:04:33.318Z,27.25
2019-01-28T05:05:11.587Z,26.23
2019-01-28T05:05:48.992Z,22.50
2019-01-28T05:06:26.975Z,25.40
2019-01-28T05:07:04.116Z,22.10
2019-01-28T05:07:42.273Z,21.00
2019-01-28T05:08:20.087Z,25.20
2019-01-28T05:08:57.678Z,26.02
2019-01-28T05:09:34.957Z,28.75
2019-01-28T05:10:14.070Z,27.32
2019-01-28T05:10:51.797Z,26.57
2019-01-28T05:11:29.741Z,21.65
2019-01-28T05:12:07.461Z,23.65
2019-01-28T05:12:45.219Z,22.95
2019-01-28T05:13:32.932Z,23.60
2019-01-28T05:14:22.595Z,23.30
2019-01-28T05:15:00.623Z,28.42
2019-01-28T05:15:37.739Z,23.18
2019-01-28T05:16:15.482Z,23.77
2019-01-28T05:16:52.907Z,21.60
2019-01-28T05:17:30.447Z,20.95
2019-01-28T05:18:08.307Z,22.07
2019-01-28T05:18:45.465Z,22.77
2019-01-28T05:19:22.841Z,28.23
2019-01-28T05:20:00.448Z,23.42
2019-01-28T05:20:37.783Z,25.00
2019-01-28T05:21:15.201Z,20.35
2019-01-28T05:21:53.259Z,25.77
2019-01-28T05:22:31.098Z,21.10
2019-01-28T05:23:09.240Z,20.48
2019-01-28T05:23:47.033Z,22.15
2019-01-28T05:24:24.931Z,25.10
2019-01-28T05:25:02.511Z,22.07
2019-01-28T05:25:40.278Z,19.23
2019-01-28T05:26:18.018Z,19.82
2019-01-28T05:26:55.545Z,27.60
2019-01-28T05:27:33.549Z,23.30
2019-01-28T05:28:11.015Z,17.48
2019-01-28T05:28:49.040Z,18.27
2019-01-28T05:29:26.517Z,20.97
2019-01-28T05:30:04.687Z,22.45
2019-01-28T05:30:42.396Z,20.40
2019-01-28T05:31:20.383Z,22.77
2019-01-28T05:31:58.143Z,21.52
2019-01-28T05:32:35.823Z,18.98
2019-01-28T05:33:13.165Z,23.32
2019-01-28T05:33:50.582Z,18.37
2019-01-28T05:34:28.550Z,20.10
2019-01-28T05:35:08.614Z,31.68
2019-01-28T05:35:45.813Z,17.75
2019-01-28T05:36:23.803Z,23.38
2019-01-28T05:37:01.259Z,24.70
2019-01-28T05:37:38.367Z,17.17
2019-01-28T05:38:16.482Z,18.87
2019-01-28T05:38:53.893Z,24.52
2019-01-28T05:39:30.987Z,21.50
2019-01-28T05:40:10.280Z,20.50
2019-01-28T05:40:48.051Z,22.50
2019-01-28T05:41:26.037Z,19.32
2019-01-28T05:42:04.271Z,16.17
2019-01-28T05:42:42.373Z,21.48
2019-01-28T05:43:20.385Z,20.05
2019-01-28T05:43:58.362Z,17.50
2019-01-28T05:44:35.701Z,20.12
2019-01-28T05:45:14.850Z,24.23
2019-01-28T05:45:51.887Z,26.52
2019-01-28T05:46:29.451Z,25.48
2019-01-28T05:47:07.260Z,18.00
2019-01-28T05:47:45.160Z,24.47
2019-01-28T05:48:22.625Z,21.42
2019-01-28T05:49:00.508Z,21.75
2019-01-28T05:49:37.606Z,19.87
2019-01-28T05:50:15.330Z,20.48
2019-01-28T05:50:52.939Z,22.15
2019-01-28T05:51:30.965Z,24.55
2019-01-28T05:52:08.421Z,21.15
2019-01-28T05:52:46.349Z,20.02
2019-01-28T05:53:24.107Z,21.10
2019-01-28T05:54:01.273Z,30.85
2019-01-28T05:54:38.983Z,20.72
2019-01-28T05:55:17.347Z,18.73
2019-01-28T05:55:55.233Z,18.55
2019-01-28T05:56:32.921Z,20.27
2019-01-28T05:57:10.390Z,20.20
2019-01-28T05:57:47.909Z,23.40
2019-01-28T05:58:25.079Z,19.25
2019-01-28T05:59:02.787Z,19.05
2019-01-28T05:59:40.519Z,19.50
2019-01-28T06:00:24.907Z,27.05
2019-01-28T06:01:02.333Z,25.45
2019-01-28T06:01:39.810Z,23.00
2019-01-28T06:02:17.529Z,19.20
2019-01-28T06:02:55.094Z,19.23
2019-01-28T06:03:32.889Z,17.55
2019-01-28T06:04:10.450Z,21.45
2019-01-28T06:04:48.567Z,28.32
2019-01-28T06:05:25.922Z,17.67
2019-01-28T06:06:04.599Z,24.30
2019-01-28T06:06:42.508Z,20.15
2019-01-28T06:07:20.173Z,17.73
2019-01-28T06:07:57.901Z,18.65
2019-01-28T06:08:35.931Z,23.85
2019-01-28T06:09:13.647Z,26.82
2019-01-28T06:09:51.335Z,20.35
2019-01-28T06:10:28.824Z,19.05
2019-01-28T06:11:05.884Z,16.23
2019-01-28T06:11:43.899Z,18.92
2019-01-28T06:12:21.873Z,23.80
2019-01-28T06:12:59.778Z,21.27
2019-01-28T06:13:37.159Z,26.80
2019-01-28T06:14:14.941Z,26.68
2019-01-28T06:14:52.993Z,23.05
2019-01-28T06:15:30.319Z,22.90
2019-01-28T06:16:08.199Z,20.72
2019-01-28T06:16:45.963Z,25.45
2019-01-28T06:17:23.591Z,25.65
2019-01-28T06:18:01.347Z,19.65
2019-01-28T06:18:38.731Z,27.98
2019-01-28T06:19:16.438Z,18.35
2019-01-28T06:19:54.403Z,21.33
2019-01-28T06:20:31.948Z,19.27
2019-01-28T06:21:10.072Z,17.85
2019-01-28T06:21:47.451Z,22.62
2019-01-28T06:22:25.203Z,19.02
2019-01-28T06:23:02.821Z,22.42
2019-01-28T06:23:40.219Z,26.00
2019-01-28T06:24:17.874Z,23.30
2019-01-28T06:24:55.636Z,15.50
2019-01-28T06:25:32.816Z,21.37
2019-01-28T06:26:09.981Z,14.75
2019-01-28T06:26:47.971Z,19.15
2019-01-28T06:27:26.045Z,15.78
2019-01-28T06:28:03.431Z,27.73
2019-01-28T06:28:41.072Z,21.23
2019-01-28T06:29:19.139Z,16.93
2019-01-28T06:29:56.688Z,20.70
2019-01-28T06:30:34.642Z,20.02
2019-01-28T06:31:12.836Z,16.90
2019-01-28T06:31:51.003Z,18.15
2019-01-28T06:32:28.809Z,17.90
2019-01-28T06:33:06.477Z,23.83
2019-01-28T06:33:43.920Z,21.52
2019-01-28T06:34:21.632Z,29.12
2019-01-28T06:34:59.393Z,21.48
2019-01-28T06:35:36.977Z,23.85
2019-01-28T06:36:14.147Z,16.00
2019-01-28T06:36:52.029Z,19.15
2019-01-28T06:37:29.507Z,20.82
2019-01-28T06:38:07.396Z,30.80
2019-01-28T06:38:44.589Z,19.60
2019-01-28T06:40:10.513Z,21.75
2019-01-28T06:40:48.192Z,23.10
2019-01-28T06:41:26.296Z,22.45
2019-01-28T06:42:03.837Z,17.62
2019-01-28T06:42:41.315Z,15.35
2019-01-28T06:43:18.899Z,20.27
2019-01-28T06:43:56.586Z,20.30
2019-01-28T06:44:34.071Z,16.80
2019-01-28T06:45:12.870Z,25.35
2019-01-28T06:45:50.446Z,19.12
2019-01-28T06:46:28.236Z,20.17
2019-01-28T06:47:05.406Z,21.10
2019-01-28T06:47:47.061Z,22.15
2019-01-28T06:48:21.757Z,17.92
2019-01-28T06:48:58.775Z,22.80
2019-01-28T06:49:36.783Z,21.23
2019-01-28T06:50:15.693Z,16.32
2019-01-28T06:50:52.980Z,17.48
2019-01-28T06:51:30.319Z,21.62
2019-01-28T06:52:08.007Z,18.77
2019-01-28T06:52:46.125Z,16.37
2019-01-28T06:53:23.268Z,18.07
2019-01-28T06:54:00.898Z,18.60
2019-01-28T06:54:38.437Z,24.20
2019-01-28T06:55:16.751Z,18.17
2019-01-28T06:55:54.208Z,20.32
2019-01-28T06:56:32.226Z,22.75
2019-01-28T06:57:10.088Z,20.02
2019-01-28T06:57:48.075Z,20.68
2019-01-28T06:58:25.680Z,20.10
2019-01-28T06:59:03.669Z,19.00
2019-01-28T06:59:41.019Z,18.25
2019-01-28T07:00:26.922Z,19.50
2019-01-28T07:01:05.356Z,21.05
2019-01-28T07:01:43.315Z,14.68
2019-01-28T07:02:21.207Z,14.78
2019-01-28T07:02:59.537Z,18.73
2019-01-28T07:03:37.320Z,18.42
2019-01-28T07:04:14.943Z,15.35
2019-01-28T07:04:52.933Z,19.80
2019-01-28T07:05:31.023Z,14.23
2019-01-28T07:06:08.918Z,20.65
2019-01-28T07:06:46.929Z,22.42
2019-01-28T07:07:24.615Z,15.90
2019-01-28T07:08:02.737Z,17.48
2019-01-28T07:08:39.786Z,16.50
2019-01-28T07:09:17.707Z,19.32
2019-01-28T07:09:55.635Z,14.68
2019-01-28T07:10:33.690Z,12.45
2019-01-28T07:11:11.454Z,17.02
2019-01-28T07:11:49.303Z,15.30
2019-01-28T07:12:27.013Z,17.27
2019-01-28T07:13:04.702Z,17.67
2019-01-28T07:13:42.679Z,22.10
2019-01-28T07:14:19.662Z,16.82
2019-01-28T07:14:57.747Z,15.43
2019-01-28T07:15:35.499Z,23.40
2019-01-28T07:16:13.515Z,20.90
2019-01-28T07:16:50.809Z,13.20
2019-01-28T07:17:28.469Z,19.52
2019-01-28T07:18:06.858Z,14.70
2019-01-28T07:18:44.976Z,15.15
2019-01-28T07:19:22.835Z,22.62
2019-01-28T07:20:00.844Z,13.83
2019-01-28T07:20:38.343Z,17.25
2019-01-28T07:21:16.128Z,20.77
2019-01-28T07:21:53.518Z,13.72
2019-01-28T07:22:30.939Z,17.52
2019-01-28T07:23:07.821Z,15.38
2019-01-28T07:23:45.008Z,14.83
2019-01-28T07:24:22.567Z,16.85
2019-01-28T07:25:00.344Z,21.87
2019-01-28T07:25:37.810Z,13.05
2019-01-28T07:26:15.759Z,13.62
2019-01-28T07:26:53.209Z,15.50
2019-01-28T07:27:30.355Z,15.13
2019-01-28T07:28:08.615Z,17.48
2019-01-28T07:28:46.082Z,18.50
2019-01-28T07:29:23.982Z,17.12
2019-01-28T07:30:01.398Z,22.02
2019-01-28T07:30:39.190Z,19.17
2019-01-28T07:31:16.668Z,19.67
2019-01-28T07:31:54.763Z,17.12
2019-01-28T07:32:32.241Z,19.30
2019-01-28T07:33:10.020Z,13.15
2019-01-28T07:33:47.295Z,12.90
2019-01-28T07:34:24.778Z,13.65
2019-01-28T07:35:02.559Z,22.73
2019-01-28T07:35:39.777Z,16.40
2019-01-28T07:36:16.604Z,14.85
2019-01-28T07:36:54.036Z,13.32
2019-01-28T07:37:31.860Z,15.88
2019-01-28T07:38:09.439Z,16.90
2019-01-28T07:38:47.123Z,25.10
2019-01-28T07:39:24.300Z,17.23
2019-01-28T07:40:01.726Z,21.68
2019-01-28T07:40:39.199Z,17.20
2019-01-28T07:41:17.019Z,19.27
2019-01-28T07:41:55.059Z,14.55
2019-01-28T07:42:32.823Z,13.30
2019-01-28T07:43:10.627Z,16.45
2019-01-28T07:43:48.620Z,14.07
2019-01-28T07:44:26.176Z,24.82
2019-01-28T07:45:04.204Z,16.30
2019-01-28T07:45:45.384Z,18.17
2019-01-28T07:46:20.077Z,24.60
2019-01-28T07:46:57.648Z,16.87
2019-01-28T07:47:34.952Z,20.17
2019-01-28T07:48:12.735Z,11.78
2019-01-28T07:48:49.975Z,18.40
2019-01-28T07:49:27.459Z,22.60
2019-01-28T07:50:09.254Z,15.90
2019-01-28T07:50:46.944Z,17.42
2019-01-28T07:51:26.656Z,16.62
2019-01-28T07:52:04.121Z,20.02
2019-01-28T07:52:41.234Z,14.45
2019-01-28T07:53:19.127Z,23.75
2019-01-28T07:53:56.801Z,14.65
2019-01-28T07:54:34.552Z,11.65
2019-01-28T07:55:13.339Z,14.30
2019-01-28T07:55:51.292Z,13.75
2019-01-28T07:56:28.974Z,15.23
2019-01-28T07:57:06.808Z,16.97
2019-01-28T07:57:44.408Z,14.53
2019-01-28T07:58:22.420Z,21.82
2019-01-28T07:59:00.107Z,13.68
2019-01-28T07:59:37.776Z,24.37
2019-01-28T08:00:19.438Z,17.27
2019-01-28T08:00:57.459Z,15.75
2019-01-28T08:01:34.909Z,11.15
2019-01-28T08:02:12.794Z,14.75
2019-01-28T08:02:50.852Z,14.30
2019-01-28T08:03:28.688Z,23.07
2019-01-28T08:04:07.607Z,18.12
2019-01-28T08:04:45.308Z,18.98
2019-01-28T08:05:23.096Z,9.90
2019-01-28T08:06:01.071Z,16.32
2019-01-28T08:06:39.243Z,17.48
2019-01-28T08:07:16.608Z,16.87
2019-01-28T08:07:54.565Z,18.77
2019-01-28T08:08:32.321Z,18.23
2019-01-28T08:09:10.184Z,16.20